createdAt,value
2023-02-09T00:02:46.264Z,13.93
2023-02-09T00:07:48.079Z,13.07
2023-02-09T00:13:08.397Z,13.40
2023-02-09T00:18:10.179Z,13.03
2023-02-09T00:23:12.014Z,12.57
2023-02-09T00:28:14.144Z,12.03
2023-02-09T00:33:16.077Z,12.10
2023-02-09T00:38:18.063Z,12.30
2023-02-09T00:43:19.914Z,12.37
2023-02-09T00:48:22.398Z,11.70
2023-02-09T00:53:24.725Z,11.87
2023-02-09T00:58:26.591Z,12.33
2023-02-09T01:03:28.445Z,12.27
2023-02-09T01:08:30.274Z,12.23
2023-02-09T01:13:32.154Z,12.07
2023-02-09T01:18:34.957Z,12.30
2023-02-09T01:23:37.009Z,11.60
2023-02-09T01:28:39.577Z,11.77
2023-02-09T01:33:41.428Z,11.20
2023-02-09T01:38:43.327Z,11.97
2023-02-09T01:43:54.380Z,11.40
2023-02-09T01:49:18.337Z,10.80
2023-02-09T01:54:34.927Z,11.47
2023-02-09T01:59:40.288Z,11.30
2023-02-09T02:04:44.241Z,11.20
2023-02-09T02:09:47.892Z,12.07
2023-02-09T02:14:50.699Z,11.83
2023-02-09T02:19:58.708Z,12.60
2023-02-09T02:25:31.366Z,12.97
2023-02-09T02:30:50.806Z,11.87
2023-02-09T02:35:58.133Z,12.33
2023-02-09T02:41:15.199Z,12.40
2023-02-09T02:46:22.918Z,12.87
2023-02-09T02:51:30.144Z,13.90
2023-02-09T02:56:37.079Z,12.67
2023-02-09T03:02:02.236Z,11.97
2023-02-09T03:07:08.733Z,11.53
2023-02-09T03:12:51.633Z,11.33
2023-02-09T03:18:10.475Z,11.63
2023-02-09T03:23:23.858Z,12.43
2023-02-09T03:28:36.554Z,11.67
2023-02-09T03:33:39.522Z,11.97
2023-02-09T03:38:41.330Z,13.13
2023-02-09T03:44:01.619Z,12.27
2023-02-09T03:49:06.602Z,11.43
2023-02-09T03:54:08.569Z,11.67
2023-02-09T03:59:10.560Z,11.77
2023-02-09T04:04:12.395Z,12.77
2023-02-09T04:09:15.139Z,11.67
2023-02-09T04:14:17.531Z,11.47
2023-02-09T04:19:19.375Z,11.70
2023-02-09T04:24:21.909Z,11.03
2023-02-09T04:29:23.800Z,11.40
2023-02-09T04:34:25.815Z,11.80
2023-02-09T04:39:27.666Z,11.63
2023-02-09T04:44:29.558Z,12.77
2023-02-09T04:49:31.474Z,11.00
2023-02-09T04:54:33.298Z,12.10
2023-02-09T04:59:35.182Z,11.87
2023-02-09T05:04:37.271Z,12.07
2023-02-09T05:09:39.106Z,11.87
2023-02-09T05:14:40.981Z,12.03
2023-02-09T05:19:42.816Z,11.37
2023-02-09T05:24:44.687Z,13.03
2023-02-09T05:29:46.603Z,12.23
2023-02-09T05:34:48.447Z,12.00
2023-02-09T05:39:51.255Z,13.93
2023-02-09T05:44:53.411Z,12.70
2023-02-09T05:49:55.257Z,13.07
2023-02-09T05:54:57.182Z,13.33
2023-02-09T05:59:59.048Z,13.33
2023-02-09T06:05:00.893Z,15.50
2023-02-09T06:10:02.730Z,16.60
2023-02-09T06:15:05.007Z,13.70
2023-02-09T06:20:07.225Z,16.47
2023-02-09T06:25:09.044Z,15.67
2023-02-09T06:30:11.634Z,17.37
2023-02-09T06:35:13.531Z,18.03
2023-02-09T06:40:15.458Z,19.03
2023-02-09T06:45:17.819Z,21.67
2023-02-09T06:50:20.402Z,21.37
2023-02-09T06:55:22.350Z,20.57
2023-02-09T07:00:24.285Z,19.63
2023-02-09T07:05:26.238Z,20.33
2023-02-09T07:10:28.056Z,21.17
2023-02-09T07:15:29.867Z,21.33
2023-02-09T07:20:31.681Z,20.47
2023-02-09T07:25:34.291Z,18.73
2023-02-09T07:30:41.055Z,21.83
2023-02-09T07:35:43.139Z,19.93
2023-02-09T07:40:46.778Z,20.57
2023-02-09T07:45:48.775Z,24.47
2023-02-09T07:50:51.164Z,23.17
2023-02-09T07:55:53.508Z,23.20
2023-02-09T08:00:55.402Z,22.73
2023-02-09T08:06:01.932Z,22.47
2023-02-09T08:11:05.523Z,20.80
2023-02-09T08:16:12.871Z,20.67
2023-02-09T08:21:16.763Z,22.10
2023-02-09T08:26:18.869Z,22.40
2023-02-09T08:31:22.102Z,25.13
2023-02-09T08:36:24.091Z,24.73
2023-02-09T08:41:25.955Z,23.63
2023-02-09T08:46:28.190Z,24.57
2023-02-09T08:51:30.086Z,21.60
2023-02-09T08:56:31.888Z,19.70
2023-02-09T09:01:33.822Z,18.60
2023-02-09T09:06:36.414Z,17.63
2023-02-09T09:11:38.227Z,20.83
2023-02-09T09:16:40.129Z,19.23
2023-02-09T09:21:42.189Z,19.20
2023-02-09T09:26:44.153Z,17.13
2023-02-09T09:31:46.086Z,18.57
2023-02-09T09:36:48.073Z,19.70
2023-02-09T09:41:51.712Z,19.80
2023-02-09T09:46:54.865Z,19.23
2023-02-09T09:52:16.961Z,18.90
2023-02-09T09:57:31.264Z,18.25
2023-02-09T10:02:34.698Z,17.93
2023-02-09T10:07:38.902Z,18.50
2023-02-09T10:12:48.829Z,19.00
2023-02-09T10:17:50.675Z,19.88
2023-02-09T10:22:52.533Z,18.48
2023-02-09T10:27:54.321Z,18.05
2023-02-09T10:33:00.418Z,17.55
2023-02-09T10:38:03.253Z,18.20
2023-02-09T10:43:18.041Z,18.08
2023-02-09T10:48:20.992Z,18.15
2023-02-09T10:53:38.385Z,16.95
2023-02-09T10:58:40.848Z,16.67
2023-02-09T11:04:05.508Z,18.13
2023-02-09T11:09:17.958Z,17.75
2023-02-09T11:14:21.091Z,17.48
2023-02-09T11:19:32.029Z,16.70
2023-02-09T11:25:10.950Z,18.27
2023-02-09T11:30:15.864Z,19.00
2023-02-09T11:35:19.153Z,18.08
2023-02-09T11:40:41.548Z,17.02
2023-02-09T11:45:51.437Z,16.88
2023-02-09T11:50:56.153Z,18.80
2023-02-09T11:56:00.780Z,16.38
2023-02-09T12:01:20.498Z,15.65
2023-02-09T12:06:24.881Z,15.68
2023-02-09T12:11:45.501Z,16.88
2023-02-09T12:16:54.692Z,16.08
2023-02-09T12:21:56.618Z,16.33
2023-02-09T12:26:58.513Z,15.60
2023-02-09T12:32:06.696Z,14.93
2023-02-09T12:37:14.491Z,17.42
2023-02-09T12:42:16.332Z,15.45
2023-02-09T12:47:42.873Z,15.02
2023-02-09T12:53:22.492Z,14.80
2023-02-09T12:58:34.957Z,17.10
2023-02-09T13:04:03.804Z,15.63
2023-02-09T13:09:13.554Z,15.40
2023-02-09T13:14:18.243Z,15.52
2023-02-09T13:19:51.060Z,17.30
2023-02-09T13:25:00.585Z,14.98
2023-02-09T13:30:02.556Z,15.73
2023-02-09T13:35:04.566Z,16.52
2023-02-09T13:40:29.834Z,16.30
2023-02-09T13:45:31.921Z,16.13
2023-02-09T13:50:34.062Z,16.55
2023-02-09T13:55:39.914Z,16.63
2023-02-09T14:00:47.515Z,16.92
2023-02-09T14:05:59.183Z,16.63
2023-02-09T14:11:33.388Z,16.65
2023-02-09T14:16:53.183Z,16.65
2023-02-09T14:21:55.542Z,16.25
2023-02-09T14:27:05.314Z,16.58
2023-02-09T14:32:33.354Z,15.80
2023-02-09T14:37:37.495Z,16.55
2023-02-09T14:42:59.280Z,15.90
2023-02-09T14:48:01.086Z,17.77
2023-02-09T14:53:08.135Z,18.23
2023-02-09T14:58:20.380Z,16.67
2023-02-09T15:03:23.095Z,17.63
2023-02-09T15:08:28.366Z,17.67
2023-02-09T15:13:32.583Z,19.63
2023-02-09T15:18:36.168Z,17.60
2023-02-09T15:23:37.979Z,17.02
2023-02-09T15:28:39.837Z,17.75
2023-02-09T15:33:41.694Z,18.40
2023-02-09T15:38:43.541Z,19.50
2023-02-09T15:44:03.871Z,17.88
2023-02-09T15:49:05.853Z,19.13
2023-02-09T15:54:19.982Z,18.58
2023-02-09T15:59:23.486Z,19.65
2023-02-09T16:04:25.351Z,21.57
2023-02-09T16:09:30.923Z,21.70
2023-02-09T16:14:32.835Z,18.73
2023-02-09T16:19:34.885Z,34.57
2023-02-09T16:24:46.748Z,22.50
2023-02-09T16:29:48.625Z,22.90
2023-02-09T16:34:51.394Z,22.03
2023-02-09T16:39:54.336Z,21.50
2023-02-09T16:44:56.898Z,22.53
2023-02-09T16:50:05.460Z,22.97
2023-02-09T16:55:20.857Z,25.13
2023-02-09T17:00:28.576Z,23.73
2023-02-09T17:05:37.188Z,31.73
2023-02-09T17:10:39.125Z,22.17
2023-02-09T17:15:49.028Z,33.93
2023-02-09T17:20:55.209Z,24.43
2023-02-09T17:25:57.316Z,19.27
2023-02-09T17:31:01.656Z,19.13
2023-02-09T17:36:25.695Z,19.27
2023-02-09T17:41:44.818Z,20.30
2023-02-09T17:46:46.851Z,22.27
2023-02-09T17:51:49.480Z,22.47
2023-02-09T17:56:51.378Z,20.17
2023-02-09T18:01:55.273Z,26.00
2023-02-09T18:06:58.318Z,26.13
2023-02-09T18:12:07.875Z,26.13
2023-02-09T18:17:09.813Z,26.43
2023-02-09T18:22:17.280Z,25.13
2023-02-09T18:27:21.061Z,18.73
2023-02-09T18:32:24.014Z,20.13
2023-02-09T18:37:25.947Z,18.37
2023-02-09T18:42:27.759Z,18.73
2023-02-09T18:47:29.862Z,20.90
2023-02-09T18:52:32.165Z,23.87
2023-02-09T18:57:34.038Z,21.20
2023-02-09T19:02:36.906Z,18.97
2023-02-09T19:07:39.091Z,17.97
2023-02-09T19:12:41.622Z,17.77
2023-02-09T19:17:44.637Z,23.40
2023-02-09T19:22:51.389Z,20.17
2023-02-09T19:27:53.918Z,29.93
2023-02-09T19:33:00.235Z,20.73
2023-02-09T19:38:02.090Z,21.97
2023-02-09T19:43:05.176Z,22.10
2023-02-09T19:48:08.583Z,20.23
2023-02-09T19:53:10.700Z,16.90
2023-02-09T19:58:12.540Z,20.37
2023-02-09T20:03:15.803Z,18.97
2023-02-09T20:08:19.594Z,18.40
2023-02-09T20:18:23.240Z,19.87
2023-02-09T20:23:25.085Z,19.60
2023-02-09T20:28:27.006Z,20.37
2023-02-09T20:33:28.877Z,20.47
2023-02-09T20:38:30.742Z,21.00
2023-02-09T20:43:51.119Z,24.87
2023-02-09T20:48:53.011Z,17.93
2023-02-09T20:53:54.900Z,18.40
2023-02-09T20:58:57.124Z,19.73
2023-02-09T21:04:00.391Z,20.37
2023-02-09T21:09:02.383Z,17.93
2023-02-09T21:14:04.445Z,20.37
2023-02-09T21:19:06.227Z,18.53
2023-02-09T21:24:08.163Z,17.87
2023-02-09T21:29:11.029Z,17.43
2023-02-09T21:34:14.705Z,16.83
2023-02-09T21:39:16.649Z,18.50
2023-02-09T21:44:18.508Z,19.13
2023-02-09T21:49:20.735Z,22.90
2023-02-09T21:54:22.586Z,18.60
2023-02-09T21:59:24.456Z,18.63
2023-02-09T22:04:27.258Z,19.90
2023-02-09T22:09:29.334Z,16.90
2023-02-09T22:14:31.466Z,18.60
2023-02-09T22:19:33.325Z,18.07
2023-02-09T22:24:35.283Z,19.63
2023-02-09T22:29:37.441Z,19.17
2023-02-09T22:34:39.342Z,18.40
2023-02-09T22:39:41.179Z,17.30
2023-02-09T22:44:43.041Z,18.80
2023-02-09T22:49:46.788Z,18.13
2023-02-09T22:54:48.612Z,16.83
2023-02-09T22:59:50.483Z,18.77
2023-02-09T23:04:52.340Z,18.07
2023-02-09T23:09:54.242Z,18.63
2023-02-09T23:14:56.052Z,18.03
2023-02-09T23:19:57.856Z,17.93
2023-02-09T23:25:01.570Z,18.13
2023-02-09T23:30:04.044Z,18.60
2023-02-09T23:35:06.355Z,18.17
2023-02-09T23:40:08.655Z,18.27
2023-02-09T23:45:10.486Z,19.00
2023-02-09T23:50:12.346Z,18.40
2023-02-09T23:55:14.193Z,20.27
